sensor_id;sensor_type;location;lat;lon;timestamp;P1;durP1;ratioP1;P2;durP2;ratioP2
8909;SDS011;4490;49.072;8.804;2023-02-15T00:00:19;62.93;;;24.90;;
8909;SDS011;4490;49.072;8.804;2023-02-15T00:02:45;51.43;;;22.63;;
8909;SDS011;4490;49.072;8.804;2023-02-15T00:05:11;54.47;;;23.63;;
8909;SDS011;4490;49.072;8.804;2023-02-15T00:07:36;54.70;;;23.03;;
8909;SDS011;4490;49.072;8.804;2023-02-15T00:10:02;56.00;;;22.50;;
8909;SDS011;4490;49.072;8.804;2023-02-15T00:12:28;43.77;;;22.73;;
8909;SDS011;4490;49.072;8.804;2023-02-15T00:14:54;69.13;;;22.60;;
8909;SDS011;4490;49.072;8.804;2023-02-15T00:17:20;50.97;;;22.37;;
8909;SDS011;4490;49.072;8.804;2023-02-15T00:19:46;55.87;;;22.70;;
8909;SDS011;4490;49.072;8.804;2023-02-15T00:22:11;56.67;;;22.30;;
8909;SDS011;4490;49.072;8.804;2023-02-15T00:24:37;48.70;;;21.40;;
8909;SDS011;4490;49.072;8.804;2023-02-15T00:27:03;50.03;;;21.93;;
8909;SDS011;4490;49.072;8.804;2023-02-15T00:29:29;83.07;;;22.17;;
8909;SDS011;4490;49.072;8.804;2023-02-15T00:31:55;59.30;;;21.60;;
8909;SDS011;4490;49.072;8.804;2023-02-15T00:34:21;62.50;;;22.23;;
8909;SDS011;4490;49.072;8.804;2023-02-15T00:36:49;60.40;;;20.63;;
8909;SDS011;4490;49.072;8.804;2023-02-15T00:39:15;59.77;;;21.07;;
8909;SDS011;4490;49.072;8.804;2023-02-15T00:41:42;52.77;;;21.07;;
8909;SDS011;4490;49.072;8.804;2023-02-15T00:44:08;46.23;;;19.90;;
8909;SDS011;4490;49.072;8.804;2023-02-15T00:46:34;55.90;;;20.63;;
8909;SDS011;4490;49.072;8.804;2023-02-15T00:49:00;45.73;;;20.67;;
8909;SDS011;4490;49.072;8.804;2023-02-15T00:51:26;52.80;;;19.27;;
8909;SDS011;4490;49.072;8.804;2023-02-15T00:53:52;42.13;;;20.17;;
8909;SDS011;4490;49.072;8.804;2023-02-15T00:56:18;41.47;;;20.10;;
8909;SDS011;4490;49.072;8.804;2023-02-15T00:58:43;65.57;;;20.53;;
8909;SDS011;4490;49.072;8.804;2023-02-15T01:01:11;59.90;;;19.90;;
8909;SDS011;4490;49.072;8.804;2023-02-15T01:03:41;60.97;;;20.93;;
8909;SDS011;4490;49.072;8.804;2023-02-15T01:06:08;64.13;;;20.33;;
8909;SDS011;4490;49.072;8.804;2023-02-15T01:08:35;58.70;;;20.73;;
8909;SDS011;4490;49.072;8.804;2023-02-15T01:11:08;46.03;;;19.43;;
8909;SDS011;4490;49.072;8.804;2023-02-15T01:13:35;55.67;;;18.83;;
8909;SDS011;4490;49.072;8.804;2023-02-15T01:16:01;75.23;;;20.20;;
8909;SDS011;4490;49.072;8.804;2023-02-15T01:18:27;63.90;;;19.87;;
8909;SDS011;4490;49.072;8.804;2023-02-15T01:20:53;71.53;;;20.50;;
8909;SDS011;4490;49.072;8.804;2023-02-15T01:23:19;76.10;;;20.97;;
8909;SDS011;4490;49.072;8.804;2023-02-15T01:25:45;50.93;;;18.93;;
8909;SDS011;4490;49.072;8.804;2023-02-15T01:28:10;66.50;;;19.07;;
8909;SDS011;4490;49.072;8.804;2023-02-15T01:30:36;61.97;;;18.70;;
8909;SDS011;4490;49.072;8.804;2023-02-15T01:33:02;68.73;;;18.73;;
8909;SDS011;4490;49.072;8.804;2023-02-15T01:35:28;54.33;;;18.10;;
8909;SDS011;4490;49.072;8.804;2023-02-15T01:37:54;64.27;;;19.07;;
8909;SDS011;4490;49.072;8.804;2023-02-15T01:40:21;109.30;;;19.70;;
8909;SDS011;4490;49.072;8.804;2023-02-15T01:42:50;85.67;;;18.97;;
8909;SDS011;4490;49.072;8.804;2023-02-15T01:45:24;83.77;;;20.77;;
8909;SDS011;4490;49.072;8.804;2023-02-15T01:47:58;64.10;;;17.77;;
8909;SDS011;4490;49.072;8.804;2023-02-15T01:50:58;56.00;;;17.97;;
8909;SDS011;4490;49.072;8.804;2023-02-15T01:53:41;59.57;;;17.83;;
8909;SDS011;4490;49.072;8.804;2023-02-15T01:56:12;68.80;;;18.33;;
8909;SDS011;4490;49.072;8.804;2023-02-15T01:58:43;69.17;;;18.37;;
8909;SDS011;4490;49.072;8.804;2023-02-15T02:01:09;39.17;;;17.87;;
8909;SDS011;4490;49.072;8.804;2023-02-15T02:06:15;72.60;;;18.63;;
8909;SDS011;4490;49.072;8.804;2023-02-15T02:08:42;42.10;;;17.53;;
8909;SDS011;4490;49.072;8.804;2023-02-15T02:11:12;86.97;;;18.83;;
8909;SDS011;4490;49.072;8.804;2023-02-15T02:13:39;63.20;;;18.60;;
8909;SDS011;4490;49.072;8.804;2023-02-15T02:22:11;49.43;;;18.07;;
8909;SDS011;4490;49.072;8.804;2023-02-15T02:27:51;63.77;;;16.43;;
8909;SDS011;4490;49.072;8.804;2023-02-15T02:30:44;42.60;;;16.20;;
8909;SDS011;4490;49.072;8.804;2023-02-15T02:36:16;55.93;;;15.87;;
8909;SDS011;4490;49.072;8.804;2023-02-15T02:44:15;80.33;;;18.23;;
8909;SDS011;4490;49.072;8.804;2023-02-15T02:46:52;56.20;;;17.47;;
8909;SDS011;4490;49.072;8.804;2023-02-15T02:49:38;36.00;;;17.00;;
8909;SDS011;4490;49.072;8.804;2023-02-15T02:52:51;57.80;;;17.00;;
8909;SDS011;4490;49.072;8.804;2023-02-15T03:01:06;78.10;;;17.27;;
8909;SDS011;4490;49.072;8.804;2023-02-15T03:03:40;76.50;;;18.33;;
8909;SDS011;4490;49.072;8.804;2023-02-15T03:06:21;51.83;;;16.63;;
8909;SDS011;4490;49.072;8.804;2023-02-15T03:08:55;43.37;;;17.10;;
8909;SDS011;4490;49.072;8.804;2023-02-15T03:11:25;43.67;;;16.97;;
8909;SDS011;4490;49.072;8.804;2023-02-15T03:13:51;40.80;;;17.13;;
8909;SDS011;4490;49.072;8.804;2023-02-15T03:16:17;55.30;;;17.80;;
8909;SDS011;4490;49.072;8.804;2023-02-15T03:18:58;29.90;;;16.87;;
8909;SDS011;4490;49.072;8.804;2023-02-15T03:21:42;42.90;;;16.97;;
8909;SDS011;4490;49.072;8.804;2023-02-15T03:24:23;38.03;;;16.43;;
8909;SDS011;4490;49.072;8.804;2023-02-15T03:26:56;48.80;;;17.07;;
8909;SDS011;4490;49.072;8.804;2023-02-15T03:29:24;52.13;;;16.63;;
8909;SDS011;4490;49.072;8.804;2023-02-15T03:31:54;52.30;;;17.30;;
8909;SDS011;4490;49.072;8.804;2023-02-15T03:34:25;58.37;;;16.17;;
8909;SDS011;4490;49.072;8.804;2023-02-15T03:37:00;51.93;;;17.00;;
8909;SDS011;4490;49.072;8.804;2023-02-15T03:42:17;69.87;;;17.13;;
8909;SDS011;4490;49.072;8.804;2023-02-15T03:44:59;57.67;;;17.63;;
8909;SDS011;4490;49.072;8.804;2023-02-15T03:47:35;42.67;;;16.73;;
8909;SDS011;4490;49.072;8.804;2023-02-15T03:50:05;46.93;;;17.17;;
8909;SDS011;4490;49.072;8.804;2023-02-15T03:52:54;45.00;;;17.03;;
8909;SDS011;4490;49.072;8.804;2023-02-15T03:55:21;55.17;;;17.47;;
8909;SDS011;4490;49.072;8.804;2023-02-15T03:57:47;55.43;;;18.27;;
8909;SDS011;4490;49.072;8.804;2023-02-15T04:00:32;60.83;;;18.50;;
8909;SDS011;4490;49.072;8.804;2023-02-15T04:03:31;49.00;;;17.33;;
8909;SDS011;4490;49.072;8.804;2023-02-15T04:06:02;40.30;;;17.37;;
8909;SDS011;4490;49.072;8.804;2023-02-15T04:08:28;46.90;;;18.00;;
8909;SDS011;4490;49.072;8.804;2023-02-15T04:11:12;75.23;;;19.50;;
8909;SDS011;4490;49.072;8.804;2023-02-15T04:13:38;66.33;;;19.17;;
8909;SDS011;4490;49.072;8.804;2023-02-15T04:16:03;63.13;;;18.37;;
8909;SDS011;4490;49.072;8.804;2023-02-15T04:18:30;47.33;;;17.57;;
8909;SDS011;4490;49.072;8.804;2023-02-15T04:21:17;93.37;;;19.40;;
8909;SDS011;4490;49.072;8.804;2023-02-15T04:24:03;76.27;;;17.73;;
8909;SDS011;4490;49.072;8.804;2023-02-15T04:26:47;63.10;;;17.83;;
8909;SDS011;4490;49.072;8.804;2023-02-15T04:29:13;53.00;;;17.83;;
8909;SDS011;4490;49.072;8.804;2023-02-15T04:31:40;45.47;;;18.20;;
8909;SDS011;4490;49.072;8.804;2023-02-15T04:34:06;80.07;;;18.87;;
8909;SDS011;4490;49.072;8.804;2023-02-15T04:36:31;44.60;;;18.20;;
8909;SDS011;4490;49.072;8.804;2023-02-15T04:38:57;42.30;;;18.80;;
8909;SDS011;4490;49.072;8.804;2023-02-15T04:41:22;42.43;;;17.83;;
8909;SDS011;4490;49.072;8.804;2023-02-15T04:43:48;68.57;;;20.93;;
8909;SDS011;4490;49.072;8.804;2023-02-15T04:46:14;40.77;;;18.80;;
8909;SDS011;4490;49.072;8.804;2023-02-15T04:48:39;64.53;;;19.10;;
8909;SDS011;4490;49.072;8.804;2023-02-15T04:51:06;44.30;;;18.47;;
8909;SDS011;4490;49.072;8.804;2023-02-15T04:53:32;48.03;;;17.53;;
8909;SDS011;4490;49.072;8.804;2023-02-15T04:55:58;72.10;;;19.77;;
8909;SDS011;4490;49.072;8.804;2023-02-15T04:58:23;61.33;;;18.70;;
8909;SDS011;4490;49.072;8.804;2023-02-15T05:00:49;49.27;;;18.17;;
8909;SDS011;4490;49.072;8.804;2023-02-15T05:03:15;83.90;;;20.33;;
8909;SDS011;4490;49.072;8.804;2023-02-15T05:05:40;67.57;;;19.10;;
8909;SDS011;4490;49.072;8.804;2023-02-15T05:08:06;52.33;;;18.30;;
8909;SDS011;4490;49.072;8.804;2023-02-15T05:10:31;46.57;;;18.93;;
8909;SDS011;4490;49.072;8.804;2023-02-15T05:12:57;39.40;;;18.77;;
8909;SDS011;4490;49.072;8.804;2023-02-15T05:15:22;66.57;;;20.37;;
8909;SDS011;4490;49.072;8.804;2023-02-15T05:17:48;45.30;;;19.47;;
8909;SDS011;4490;49.072;8.804;2023-02-15T05:20:14;45.70;;;20.40;;
8909;SDS011;4490;49.072;8.804;2023-02-15T05:22:40;42.87;;;19.43;;
8909;SDS011;4490;49.072;8.804;2023-02-15T05:25:06;48.10;;;18.93;;
8909;SDS011;4490;49.072;8.804;2023-02-15T05:27:51;58.73;;;19.60;;
8909;SDS011;4490;49.072;8.804;2023-02-15T05:30:35;41.93;;;19.00;;
8909;SDS011;4490;49.072;8.804;2023-02-15T05:33:01;42.67;;;19.83;;
8909;SDS011;4490;49.072;8.804;2023-02-15T05:35:26;73.67;;;19.73;;
8909;SDS011;4490;49.072;8.804;2023-02-15T05:37:52;51.23;;;19.87;;
8909;SDS011;4490;49.072;8.804;2023-02-15T05:40:18;40.17;;;20.13;;
8909;SDS011;4490;49.072;8.804;2023-02-15T05:42:43;39.57;;;19.03;;
8909;SDS011;4490;49.072;8.804;2023-02-15T05:45:09;36.37;;;18.70;;
8909;SDS011;4490;49.072;8.804;2023-02-15T05:47:34;33.53;;;18.33;;
8909;SDS011;4490;49.072;8.804;2023-02-15T05:50:00;54.77;;;19.07;;
8909;SDS011;4490;49.072;8.804;2023-02-15T05:52:26;58.23;;;20.10;;
8909;SDS011;4490;49.072;8.804;2023-02-15T05:54:51;69.07;;;19.23;;
8909;SDS011;4490;49.072;8.804;2023-02-15T05:57:17;61.57;;;19.83;;
8909;SDS011;4490;49.072;8.804;2023-02-15T05:59:42;51.67;;;19.53;;
8909;SDS011;4490;49.072;8.804;2023-02-15T06:02:08;62.07;;;20.13;;
8909;SDS011;4490;49.072;8.804;2023-02-15T06:04:34;54.33;;;19.70;;
8909;SDS011;4490;49.072;8.804;2023-02-15T06:06:59;46.00;;;20.33;;
8909;SDS011;4490;49.072;8.804;2023-02-15T06:09:25;53.67;;;21.43;;
8909;SDS011;4490;49.072;8.804;2023-02-15T06:11:50;41.03;;;19.77;;
8909;SDS011;4490;49.072;8.804;2023-02-15T06:14:16;47.43;;;19.77;;
8909;SDS011;4490;49.072;8.804;2023-02-15T06:16:42;37.77;;;18.23;;
8909;SDS011;4490;49.072;8.804;2023-02-15T06:19:07;41.17;;;19.33;;
8909;SDS011;4490;49.072;8.804;2023-02-15T06:21:33;43.40;;;19.20;;
8909;SDS011;4490;49.072;8.804;2023-02-15T06:23:58;45.87;;;20.10;;
8909;SDS011;4490;49.072;8.804;2023-02-15T06:26:24;41.07;;;19.40;;
8909;SDS011;4490;49.072;8.804;2023-02-15T06:28:50;38.37;;;19.60;;
8909;SDS011;4490;49.072;8.804;2023-02-15T06:31:15;44.17;;;19.63;;
8909;SDS011;4490;49.072;8.804;2023-02-15T06:33:41;32.17;;;17.80;;
8909;SDS011;4490;49.072;8.804;2023-02-15T06:36:06;31.40;;;18.27;;
8909;SDS011;4490;49.072;8.804;2023-02-15T06:38:32;31.83;;;16.93;;
8909;SDS011;4490;49.072;8.804;2023-02-15T06:40:58;30.30;;;17.30;;
8909;SDS011;4490;49.072;8.804;2023-02-15T06:43:23;31.37;;;17.43;;
8909;SDS011;4490;49.072;8.804;2023-02-15T06:45:49;30.77;;;17.97;;
8909;SDS011;4490;49.072;8.804;2023-02-15T06:48:15;30.77;;;18.03;;
8909;SDS011;4490;49.072;8.804;2023-02-15T06:50:40;30.80;;;17.70;;
8909;SDS011;4490;49.072;8.804;2023-02-15T06:53:06;27.60;;;16.07;;
8909;SDS011;4490;49.072;8.804;2023-02-15T06:55:32;32.53;;;18.17;;
8909;SDS011;4490;49.072;8.804;2023-02-15T06:57:57;30.50;;;17.73;;
8909;SDS011;4490;49.072;8.804;2023-02-15T07:00:23;29.53;;;17.23;;
8909;SDS011;4490;49.072;8.804;2023-02-15T07:02:58;29.07;;;17.10;;
8909;SDS011;4490;49.072;8.804;2023-02-15T07:05:24;31.87;;;19.17;;
8909;SDS011;4490;49.072;8.804;2023-02-15T07:07:55;32.70;;;18.50;;
8909;SDS011;4490;49.072;8.804;2023-02-15T07:10:22;33.43;;;19.03;;
8909;SDS011;4490;49.072;8.804;2023-02-15T07:12:47;36.20;;;19.20;;
8909;SDS011;4490;49.072;8.804;2023-02-15T07:15:15;33.73;;;18.43;;
8909;SDS011;4490;49.072;8.804;2023-02-15T07:17:42;30.77;;;17.73;;
8909;SDS011;4490;49.072;8.804;2023-02-15T07:20:19;35.37;;;19.87;;
8909;SDS011;4490;49.072;8.804;2023-02-15T07:22:46;35.93;;;18.17;;
8909;SDS011;4490;49.072;8.804;2023-02-15T07:25:12;35.23;;;18.27;;
8909;SDS011;4490;49.072;8.804;2023-02-15T07:27:38;35.73;;;20.10;;
8909;SDS011;4490;49.072;8.804;2023-02-15T07:30:05;35.60;;;18.50;;
8909;SDS011;4490;49.072;8.804;2023-02-15T07:32:33;43.77;;;18.33;;
8909;SDS011;4490;49.072;8.804;2023-02-15T07:34:59;32.60;;;17.57;;
8909;SDS011;4490;49.072;8.804;2023-02-15T07:37:24;33.83;;;18.73;;
8909;SDS011;4490;49.072;8.804;2023-02-15T07:39:51;40.23;;;17.80;;
8909;SDS011;4490;49.072;8.804;2023-02-15T07:42:16;36.10;;;17.77;;
8909;SDS011;4490;49.072;8.804;2023-02-15T07:44:42;33.60;;;18.57;;
8909;SDS011;4490;49.072;8.804;2023-02-15T07:47:08;36.03;;;18.90;;
8909;SDS011;4490;49.072;8.804;2023-02-15T07:49:34;35.77;;;19.10;;
8909;SDS011;4490;49.072;8.804;2023-02-15T07:52:00;32.53;;;18.10;;
8909;SDS011;4490;49.072;8.804;2023-02-15T07:54:27;47.00;;;18.60;;
8909;SDS011;4490;49.072;8.804;2023-02-15T07:56:52;32.93;;;17.67;;
8909;SDS011;4490;49.072;8.804;2023-02-15T07:59:18;32.13;;;18.13;;
8909;SDS011;4490;49.072;8.804;2023-02-15T08:01:43;35.70;;;18.27;;
8909;SDS011;4490;49.072;8.804;2023-02-15T08:04:09;33.33;;;18.50;;
8909;SDS011;4490;49.072;8.804;2023-02-15T08:06:36;34.83;;;18.63;;
8909;SDS011;4490;49.072;8.804;2023-02-15T08:09:03;33.90;;;18.10;;
8909;SDS011;4490;49.072;8.804;2023-02-15T08:11:34;32.27;;;18.97;;
8909;SDS011;4490;49.072;8.804;2023-02-15T08:14:12;35.33;;;18.67;;
8909;SDS011;4490;49.072;8.804;2023-02-15T08:19:09;38.97;;;19.53;;
8909;SDS011;4490;49.072;8.804;2023-02-15T08:21:37;39.83;;;19.93;;
8909;SDS011;4490;49.072;8.804;2023-02-15T08:24:06;37.23;;;19.60;;
8909;SDS011;4490;49.072;8.804;2023-02-15T08:26:33;37.57;;;21.53;;
8909;SDS011;4490;49.072;8.804;2023-02-15T08:28:59;40.97;;;20.67;;
8909;SDS011;4490;49.072;8.804;2023-02-15T08:31:26;36.30;;;20.23;;
8909;SDS011;4490;49.072;8.804;2023-02-15T08:33:53;34.83;;;20.90;;
8909;SDS011;4490;49.072;8.804;2023-02-15T08:36:22;32.93;;;18.93;;
8909;SDS011;4490;49.072;8.804;2023-02-15T08:38:49;30.53;;;18.80;;
8909;SDS011;4490;49.072;8.804;2023-02-15T08:41:17;30.57;;;19.37;;
8909;SDS011;4490;49.072;8.804;2023-02-15T08:43:44;35.57;;;21.33;;
8909;SDS011;4490;49.072;8.804;2023-02-15T08:46:11;36.27;;;20.20;;
8909;SDS011;4490;49.072;8.804;2023-02-15T08:48:38;29.73;;;18.20;;
8909;SDS011;4490;49.072;8.804;2023-02-15T08:51:26;30.80;;;18.10;;
8909;SDS011;4490;49.072;8.804;2023-02-15T08:53:55;29.30;;;19.17;;
8909;SDS011;4490;49.072;8.804;2023-02-15T08:56:23;28.07;;;17.97;;
8909;SDS011;4490;49.072;8.804;2023-02-15T08:58:50;26.03;;;17.33;;
8909;SDS011;4490;49.072;8.804;2023-02-15T09:01:19;28.67;;;18.33;;
8909;SDS011;4490;49.072;8.804;2023-02-15T09:03:47;31.20;;;17.20;;
8909;SDS011;4490;49.072;8.804;2023-02-15T09:06:16;30.77;;;17.73;;
8909;SDS011;4490;49.072;8.804;2023-02-15T09:08:42;32.97;;;17.60;;
8909;SDS011;4490;49.072;8.804;2023-02-15T09:13:38;26.57;;;17.77;;
8909;SDS011;4490;49.072;8.804;2023-02-15T09:16:05;27.07;;;17.53;;
8909;SDS011;4490;49.072;8.804;2023-02-15T09:18:33;27.90;;;17.97;;
8909;SDS011;4490;49.072;8.804;2023-02-15T09:21:05;32.43;;;18.57;;
8909;SDS011;4490;49.072;8.804;2023-02-15T09:23:32;26.80;;;17.17;;
8909;SDS011;4490;49.072;8.804;2023-02-15T09:26:01;26.23;;;17.33;;
8909;SDS011;4490;49.072;8.804;2023-02-15T09:28:28;26.17;;;17.37;;
8909;SDS011;4490;49.072;8.804;2023-02-15T09:30:53;28.13;;;17.33;;
8909;SDS011;4490;49.072;8.804;2023-02-15T09:33:20;27.13;;;17.40;;
8909;SDS011;4490;49.072;8.804;2023-02-15T09:35:46;27.23;;;16.80;;
8909;SDS011;4490;49.072;8.804;2023-02-15T09:38:12;28.37;;;16.13;;
8909;SDS011;4490;49.072;8.804;2023-02-15T09:40:41;23.20;;;15.83;;
8909;SDS011;4490;49.072;8.804;2023-02-15T09:46:27;22.03;;;15.73;;
8909;SDS011;4490;49.072;8.804;2023-02-15T10:03:10;20.93;;;14.60;;
8909;SDS011;4490;49.072;8.804;2023-02-15T10:11:08;22.57;;;16.33;;
8909;SDS011;4490;49.072;8.804;2023-02-15T10:14:12;23.07;;;16.20;;
8909;SDS011;4490;49.072;8.804;2023-02-15T10:31:28;25.57;;;16.73;;
8909;SDS011;4490;49.072;8.804;2023-02-15T10:34:16;22.67;;;16.13;;
8909;SDS011;4490;49.072;8.804;2023-02-15T10:43:05;20.60;;;14.50;;
8909;SDS011;4490;49.072;8.804;2023-02-15T10:46:04;22.10;;;16.03;;
8909;SDS011;4490;49.072;8.804;2023-02-15T10:51:17;26.37;;;17.37;;
8909;SDS011;4490;49.072;8.804;2023-02-15T11:02:10;24.37;;;18.57;;
8909;SDS011;4490;49.072;8.804;2023-02-15T11:05:07;25.53;;;17.93;;
8909;SDS011;4490;49.072;8.804;2023-02-15T11:07:50;25.50;;;18.50;;
8909;SDS011;4490;49.072;8.804;2023-02-15T11:13:02;24.97;;;17.27;;
8909;SDS011;4490;49.072;8.804;2023-02-15T11:15:36;26.03;;;17.53;;
8909;SDS011;4490;49.072;8.804;2023-02-15T11:18:13;24.77;;;17.33;;
8909;SDS011;4490;49.072;8.804;2023-02-15T11:20:50;24.20;;;16.87;;
8909;SDS011;4490;49.072;8.804;2023-02-15T11:23:21;24.73;;;16.37;;
8909;SDS011;4490;49.072;8.804;2023-02-15T11:25:56;24.17;;;16.97;;
8909;SDS011;4490;49.072;8.804;2023-02-15T11:28:30;24.40;;;17.23;;
8909;SDS011;4490;49.072;8.804;2023-02-15T11:31:00;24.13;;;16.97;;
8909;SDS011;4490;49.072;8.804;2023-02-15T11:33:37;25.03;;;17.57;;
8909;SDS011;4490;49.072;8.804;2023-02-15T11:36:08;22.97;;;16.93;;
8909;SDS011;4490;49.072;8.804;2023-02-15T11:38:38;24.07;;;16.87;;
8909;SDS011;4490;49.072;8.804;2023-02-15T11:41:11;24.10;;;17.63;;
8909;SDS011;4490;49.072;8.804;2023-02-15T11:43:42;24.03;;;17.63;;
8909;SDS011;4490;49.072;8.804;2023-02-15T11:46:13;24.50;;;16.70;;
8909;SDS011;4490;49.072;8.804;2023-02-15T11:48:39;22.97;;;17.50;;
8909;SDS011;4490;49.072;8.804;2023-02-15T11:51:08;22.43;;;17.03;;
8909;SDS011;4490;49.072;8.804;2023-02-15T11:53:40;20.90;;;16.03;;
8909;SDS011;4490;49.072;8.804;2023-02-15T11:56:21;22.33;;;16.23;;
8909;SDS011;4490;49.072;8.804;2023-02-15T11:59:03;22.67;;;16.57;;
8909;SDS011;4490;49.072;8.804;2023-02-15T12:01:35;21.50;;;15.90;;
8909;SDS011;4490;49.072;8.804;2023-02-15T12:07:34;22.10;;;16.27;;
8909;SDS011;4490;49.072;8.804;2023-02-15T12:09:59;21.90;;;16.67;;
8909;SDS011;4490;49.072;8.804;2023-02-15T12:12:35;22.00;;;16.13;;
8909;SDS011;4490;49.072;8.804;2023-02-15T12:15:05;21.67;;;16.47;;
8909;SDS011;4490;49.072;8.804;2023-02-15T12:17:40;24.17;;;17.40;;
8909;SDS011;4490;49.072;8.804;2023-02-15T12:22:51;22.93;;;17.90;;
8909;SDS011;4490;49.072;8.804;2023-02-15T12:25:20;22.43;;;16.83;;
8909;SDS011;4490;49.072;8.804;2023-02-15T12:27:50;25.90;;;19.13;;
8909;SDS011;4490;49.072;8.804;2023-02-15T12:32:48;23.33;;;17.47;;
8909;SDS011;4490;49.072;8.804;2023-02-15T12:35:29;22.33;;;17.70;;
8909;SDS011;4490;49.072;8.804;2023-02-15T12:40:31;22.70;;;17.23;;
8909;SDS011;4490;49.072;8.804;2023-02-15T12:42:58;23.17;;;18.33;;
8909;SDS011;4490;49.072;8.804;2023-02-15T12:45:31;24.10;;;17.50;;
8909;SDS011;4490;49.072;8.804;2023-02-15T12:48:09;24.20;;;17.13;;
8909;SDS011;4490;49.072;8.804;2023-02-15T12:50:40;22.67;;;17.90;;
8909;SDS011;4490;49.072;8.804;2023-02-15T12:53:12;22.93;;;18.03;;
8909;SDS011;4490;49.072;8.804;2023-02-15T12:58:21;22.70;;;18.30;;
8909;SDS011;4490;49.072;8.804;2023-02-15T13:01:10;23.87;;;18.03;;
8909;SDS011;4490;49.072;8.804;2023-02-15T13:06:26;21.93;;;16.93;;
8909;SDS011;4490;49.072;8.804;2023-02-15T13:08:54;22.50;;;17.87;;
8909;SDS011;4490;49.072;8.804;2023-02-15T13:11:22;21.50;;;16.90;;
8909;SDS011;4490;49.072;8.804;2023-02-15T13:16:22;21.17;;;16.93;;
8909;SDS011;4490;49.072;8.804;2023-02-15T13:19:12;23.40;;;17.43;;
8909;SDS011;4490;49.072;8.804;2023-02-15T13:21:47;25.27;;;18.63;;
8909;SDS011;4490;49.072;8.804;2023-02-15T13:24:17;23.80;;;18.20;;
8909;SDS011;4490;49.072;8.804;2023-02-15T13:26:47;23.13;;;18.07;;
8909;SDS011;4490;49.072;8.804;2023-02-15T13:32:01;23.93;;;18.43;;
8909;SDS011;4490;49.072;8.804;2023-02-15T13:34:37;22.73;;;18.30;;
8909;SDS011;4490;49.072;8.804;2023-02-15T13:37:10;23.40;;;18.13;;
8909;SDS011;4490;49.072;8.804;2023-02-15T13:42:40;21.07;;;17.10;;
8909;SDS011;4490;49.072;8.804;2023-02-15T13:50:38;22.90;;;17.57;;
8909;SDS011;4490;49.072;8.804;2023-02-15T13:59:05;23.00;;;17.07;;
8909;SDS011;4490;49.072;8.804;2023-02-15T14:04:53;22.10;;;17.50;;
8909;SDS011;4490;49.072;8.804;2023-02-15T14:08:29;20.07;;;17.10;;
8909;SDS011;4490;49.072;8.804;2023-02-15T14:10:34;23.47;;;17.53;;
8909;SDS011;4490;49.072;8.804;2023-02-15T14:16:09;23.17;;;18.57;;
8909;SDS011;4490;49.072;8.804;2023-02-15T14:19:04;21.33;;;17.80;;
8909;SDS011;4490;49.072;8.804;2023-02-15T14:21:43;22.53;;;18.03;;
8909;SDS011;4490;49.072;8.804;2023-02-15T14:27:27;21.77;;;17.67;;
8909;SDS011;4490;49.072;8.804;2023-02-15T14:30:00;24.93;;;19.13;;
8909;SDS011;4490;49.072;8.804;2023-02-15T14:32:40;25.57;;;20.20;;
8909;SDS011;4490;49.072;8.804;2023-02-15T14:35:14;26.50;;;20.17;;
8909;SDS011;4490;49.072;8.804;2023-02-15T14:37:43;26.07;;;19.30;;
8909;SDS011;4490;49.072;8.804;2023-02-15T14:43:27;25.03;;;18.43;;
8909;SDS011;4490;49.072;8.804;2023-02-15T14:48:49;24.67;;;19.20;;
8909;SDS011;4490;49.072;8.804;2023-02-15T14:54:08;24.40;;;19.10;;
8909;SDS011;4490;49.072;8.804;2023-02-15T14:56:44;23.10;;;18.53;;
8909;SDS011;4490;49.072;8.804;2023-02-15T14:59:22;26.43;;;18.17;;
8909;SDS011;4490;49.072;8.804;2023-02-15T15:01:58;21.13;;;17.90;;
8909;SDS011;4490;49.072;8.804;2023-02-15T15:04:33;23.97;;;18.27;;
8909;SDS011;4490;49.072;8.804;2023-02-15T15:07:09;22.40;;;18.97;;
8909;SDS011;4490;49.072;8.804;2023-02-15T15:09:46;21.97;;;18.37;;
8909;SDS011;4490;49.072;8.804;2023-02-15T15:14:49;23.23;;;18.83;;
8909;SDS011;4490;49.072;8.804;2023-02-15T15:22:39;20.93;;;17.73;;
8909;SDS011;4490;49.072;8.804;2023-02-15T15:27:40;21.47;;;18.27;;
8909;SDS011;4490;49.072;8.804;2023-02-15T15:32:39;25.70;;;19.03;;
8909;SDS011;4490;49.072;8.804;2023-02-15T15:35:15;22.00;;;19.27;;
8909;SDS011;4490;49.072;8.804;2023-02-15T15:43:24;23.03;;;18.43;;
8909;SDS011;4490;49.072;8.804;2023-02-15T15:46:24;24.90;;;20.60;;
8909;SDS011;4490;49.072;8.804;2023-02-15T15:49:06;26.33;;;20.57;;
8909;SDS011;4490;49.072;8.804;2023-02-15T15:51:39;25.03;;;20.03;;
8909;SDS011;4490;49.072;8.804;2023-02-15T15:54:05;25.33;;;19.87;;
8909;SDS011;4490;49.072;8.804;2023-02-15T15:56:37;22.63;;;19.03;;
8909;SDS011;4490;49.072;8.804;2023-02-15T15:59:07;25.03;;;20.10;;
8909;SDS011;4490;49.072;8.804;2023-02-15T16:01:40;23.73;;;18.77;;
8909;SDS011;4490;49.072;8.804;2023-02-15T16:04:11;24.43;;;19.53;;
8909;SDS011;4490;49.072;8.804;2023-02-15T16:06:39;25.80;;;18.90;;
8909;SDS011;4490;49.072;8.804;2023-02-15T16:09:25;24.73;;;19.50;;
8909;SDS011;4490;49.072;8.804;2023-02-15T16:11:58;25.37;;;20.17;;
8909;SDS011;4490;49.072;8.804;2023-02-15T16:16:57;27.23;;;20.23;;
8909;SDS011;4490;49.072;8.804;2023-02-15T16:19:35;23.40;;;18.80;;
8909;SDS011;4490;49.072;8.804;2023-02-15T16:22:03;25.73;;;19.57;;
8909;SDS011;4490;49.072;8.804;2023-02-15T16:27:31;27.00;;;20.27;;
8909;SDS011;4490;49.072;8.804;2023-02-15T16:30:19;26.60;;;20.43;;
8909;SDS011;4490;49.072;8.804;2023-02-15T16:38:24;26.70;;;19.93;;
8909;SDS011;4490;49.072;8.804;2023-02-15T16:41:23;28.73;;;21.10;;
8909;SDS011;4490;49.072;8.804;2023-02-15T16:43:52;29.83;;;21.73;;
8909;SDS011;4490;49.072;8.804;2023-02-15T16:46:25;29.73;;;21.20;;
8909;SDS011;4490;49.072;8.804;2023-02-15T16:48:59;27.67;;;20.03;;
8909;SDS011;4490;49.072;8.804;2023-02-15T16:51:29;31.03;;;21.10;;
8909;SDS011;4490;49.072;8.804;2023-02-15T16:53:57;29.07;;;21.03;;
8909;SDS011;4490;49.072;8.804;2023-02-15T16:56:30;30.73;;;22.27;;
8909;SDS011;4490;49.072;8.804;2023-02-15T16:58:57;33.30;;;22.50;;
8909;SDS011;4490;49.072;8.804;2023-02-15T17:01:25;31.27;;;22.30;;
8909;SDS011;4490;49.072;8.804;2023-02-15T17:04:39;34.77;;;23.87;;
8909;SDS011;4490;49.072;8.804;2023-02-15T17:06:57;33.90;;;23.67;;
8909;SDS011;4490;49.072;8.804;2023-02-15T17:09:29;35.47;;;24.20;;
8909;SDS011;4490;49.072;8.804;2023-02-15T17:11:57;41.63;;;26.70;;
8909;SDS011;4490;49.072;8.804;2023-02-15T17:14:31;38.87;;;25.80;;
8909;SDS011;4490;49.072;8.804;2023-02-15T17:17:06;42.47;;;26.97;;
8909;SDS011;4490;49.072;8.804;2023-02-15T17:19:43;41.17;;;26.30;;
8909;SDS011;4490;49.072;8.804;2023-02-15T17:22:14;36.73;;;25.00;;
8909;SDS011;4490;49.072;8.804;2023-02-15T17:24:44;36.23;;;24.50;;
8909;SDS011;4490;49.072;8.804;2023-02-15T17:27:15;38.10;;;24.00;;
8909;SDS011;4490;49.072;8.804;2023-02-15T17:29:50;39.23;;;24.13;;
8909;SDS011;4490;49.072;8.804;2023-02-15T17:32:24;37.40;;;25.23;;
8909;SDS011;4490;49.072;8.804;2023-02-15T17:35:14;35.90;;;24.87;;
8909;SDS011;4490;49.072;8.804;2023-02-15T17:37:47;39.43;;;26.77;;
8909;SDS011;4490;49.072;8.804;2023-02-15T17:42:53;42.67;;;29.40;;
8909;SDS011;4490;49.072;8.804;2023-02-15T17:45:20;40.53;;;28.43;;
8909;SDS011;4490;49.072;8.804;2023-02-15T17:47:47;41.27;;;26.63;;
8909;SDS011;4490;49.072;8.804;2023-02-15T17:50:21;37.53;;;25.70;;
8909;SDS011;4490;49.072;8.804;2023-02-15T17:52:48;38.70;;;25.17;;
8909;SDS011;4490;49.072;8.804;2023-02-15T17:55:15;34.83;;;23.50;;
8909;SDS011;4490;49.072;8.804;2023-02-15T17:58:02;29.60;;;21.40;;
8909;SDS011;4490;49.072;8.804;2023-02-15T18:00:30;30.23;;;20.63;;
8909;SDS011;4490;49.072;8.804;2023-02-15T18:03:17;34.27;;;22.97;;
8909;SDS011;4490;49.072;8.804;2023-02-15T18:06:02;35.43;;;23.57;;
8909;SDS011;4490;49.072;8.804;2023-02-15T18:08:46;35.43;;;23.93;;